createdAt,value
2023-02-21T00:00:40.117Z,6.00
2023-02-21T00:06:00.866Z,6.00
2023-02-21T00:11:22.876Z,6.10
2023-02-21T00:16:44.109Z,6.10
2023-02-21T00:22:04.682Z,6.10
2023-02-21T00:27:25.279Z,6.30
2023-02-21T00:32:45.894Z,6.30
2023-02-21T00:38:10.316Z,6.30
2023-02-21T00:43:30.860Z,6.40
2023-02-21T00:48:51.262Z,6.50
2023-02-21T00:54:11.848Z,6.60
2023-02-21T00:59:32.368Z,6.60
2023-02-21T01:04:52.724Z,6.30
2023-02-21T01:10:13.175Z,6.10
2023-02-21T01:15:34.213Z,6.00
2023-02-21T01:20:54.515Z,5.80
2023-02-21T01:26:14.992Z,5.90
2023-02-21T01:31:39.628Z,5.90
2023-02-21T01:37:00.447Z,6.00
2023-02-21T01:42:21.492Z,6.10
2023-02-21T01:47:41.865Z,6.00
2023-02-21T01:53:02.936Z,6.20
2023-02-21T01:58:23.329Z,6.40
2023-02-21T02:03:44.412Z,6.40
2023-02-21T02:09:05.202Z,6.30
2023-02-21T02:14:15.535Z,6.30
2023-02-21T02:19:58.458Z,6.10
2023-02-21T02:25:18.930Z,5.80
2023-02-21T02:30:45.357Z,5.60
2023-02-21T02:35:55.294Z,5.50
2023-02-21T02:41:06.375Z,5.50
2023-02-21T02:46:17.623Z,5.30
2023-02-21T02:51:19.604Z,5.20
2023-02-21T02:56:23.659Z,5.30
2023-02-21T03:01:53.632Z,5.30
2023-02-21T03:07:17.139Z,5.10
2023-02-21T03:12:34.075Z,5.20
2023-02-21T03:17:41.822Z,5.10
2023-02-21T03:22:46.367Z,4.90
2023-02-21T03:27:49.700Z,4.80
2023-02-21T03:32:53.424Z,4.80
2023-02-21T03:37:55.182Z,4.70
2023-02-21T03:42:59.023Z,4.60
2023-02-21T03:48:01.083Z,4.70
2023-02-21T03:53:03.139Z,4.60
2023-02-21T03:58:04.820Z,4.50
2023-02-21T04:03:06.522Z,4.70
2023-02-21T04:08:08.315Z,4.50
2023-02-21T04:13:10.434Z,4.50
2023-02-21T04:18:12.118Z,4.60
2023-02-21T04:23:20.872Z,4.50
2023-02-21T04:28:22.578Z,4.30
2023-02-21T04:33:24.223Z,4.40
2023-02-21T04:38:25.914Z,4.50
2023-02-21T04:43:27.541Z,4.20
2023-02-21T04:48:29.222Z,4.20
2023-02-21T04:53:30.861Z,4.30
2023-02-21T04:58:43.375Z,4.30
2023-02-21T05:03:47.294Z,4.20
2023-02-21T05:08:49.225Z,4.00
2023-02-21T05:13:51.536Z,3.70
2023-02-21T05:18:53.359Z,3.90
2023-02-21T05:23:58.072Z,4.00
2023-02-21T05:28:59.963Z,4.10
2023-02-21T05:34:01.704Z,4.10
2023-02-21T05:39:04.807Z,4.30
2023-02-21T05:44:06.515Z,4.30
2023-02-21T05:49:08.361Z,4.10
2023-02-21T05:54:16.507Z,4.10
2023-02-21T05:59:20.454Z,4.00
2023-02-21T06:04:22.593Z,3.90
2023-02-21T06:09:24.321Z,3.90
2023-02-21T06:14:26.893Z,3.80
2023-02-21T06:19:28.575Z,3.90
2023-02-21T06:24:30.289Z,4.00
2023-02-21T06:29:32.106Z,4.00
2023-02-21T06:34:34.084Z,4.00
2023-02-21T06:39:35.824Z,4.10
2023-02-21T06:44:37.528Z,4.10
2023-02-21T06:49:39.339Z,4.00
2023-02-21T06:54:41.145Z,4.10
2023-02-21T06:59:42.854Z,4.00
2023-02-21T07:04:47.729Z,4.00
2023-02-21T07:09:49.448Z,4.10
2023-02-21T07:14:51.191Z,4.30
2023-02-21T07:19:52.928Z,4.30
2023-02-21T07:24:55.628Z,4.30
2023-02-21T07:29:57.328Z,4.30
2023-02-21T07:34:59.067Z,4.40
2023-02-21T07:40:00.712Z,4.50
2023-02-21T07:45:03.494Z,4.80
2023-02-21T07:50:06.116Z,5.00
2023-02-21T07:55:08.198Z,5.10
2023-02-21T08:00:10.394Z,5.30
2023-02-21T08:05:12.121Z,5.50
2023-02-21T08:10:19.451Z,6.20
2023-02-21T08:15:21.311Z,6.90
2023-02-21T08:20:23.017Z,7.70
2023-02-21T08:25:24.702Z,8.40
2023-02-21T08:30:26.491Z,9.10
2023-02-21T08:35:28.403Z,10.00
2023-02-21T08:40:31.556Z,10.50
2023-02-21T08:45:33.578Z,11.50
2023-02-21T08:50:35.252Z,12.10
2023-02-21T08:55:36.965Z,12.50
2023-02-21T09:00:39.173Z,13.20
2023-02-21T09:05:40.868Z,13.50
2023-02-21T09:10:47.550Z,13.70
2023-02-21T09:15:50.826Z,14.70
2023-02-21T09:20:55.315Z,14.90
2023-02-21T09:25:57.449Z,15.50
2023-02-21T09:30:59.165Z,15.90
2023-02-21T09:36:00.864Z,16.60
2023-02-21T09:41:06.570Z,16.50
2023-02-21T09:46:23.306Z,17.50
2023-02-21T09:51:26.284Z,17.70
2023-02-21T09:56:34.134Z,17.60
2023-02-21T10:02:13.978Z,18.30
2023-02-21T10:07:22.371Z,19.50
2023-02-21T10:12:33.965Z,20.10
2023-02-21T10:18:02.287Z,21.20
2023-02-21T10:23:14.675Z,21.30
2023-02-21T10:28:23.343Z,22.80
2023-02-21T10:33:25.232Z,24.20
2023-02-21T10:38:27.300Z,24.60
2023-02-21T10:43:36.888Z,24.80
2023-02-21T10:48:40.822Z,25.90
2023-02-21T10:53:45.731Z,25.00
2023-02-21T10:59:05.375Z,26.30
2023-02-21T11:04:19.966Z,26.90
2023-02-21T11:09:27.477Z,26.20
2023-02-21T11:14:30.159Z,25.80
2023-02-21T11:20:08.396Z,25.80
2023-02-21T11:25:23.973Z,25.60
2023-02-21T11:30:25.947Z,25.00
2023-02-21T11:35:46.726Z,25.20
2023-02-21T11:40:51.518Z,25.20
2023-02-21T11:46:13.811Z,25.40
2023-02-21T11:51:32.947Z,25.10
2023-02-21T11:56:45.033Z,25.20
2023-02-21T12:02:11.405Z,25.70
2023-02-21T12:07:31.465Z,26.00
2023-02-21T12:12:52.784Z,26.30
2023-02-21T12:18:03.274Z,27.10
2023-02-21T12:23:23.816Z,28.20
2023-02-21T12:28:48.914Z,29.40
2023-02-21T12:33:57.242Z,28.90
2023-02-21T12:39:11.926Z,28.90
2023-02-21T12:44:28.989Z,29.80
2023-02-21T12:49:30.681Z,29.90
2023-02-21T12:54:54.097Z,30.20
2023-02-21T13:00:17.426Z,31.60
2023-02-21T13:05:37.558Z,31.30
2023-02-21T13:11:11.079Z,30.30
2023-02-21T13:16:14.305Z,31.00
2023-02-21T13:21:54.719Z,30.80
2023-02-21T13:27:31.845Z,30.40
2023-02-21T13:32:39.379Z,30.20
2023-02-21T13:37:46.396Z,30.00
2023-02-21T13:42:48.218Z,29.40
2023-02-21T13:48:01.619Z,28.70
2023-02-21T13:53:16.514Z,29.30
2023-02-21T13:58:18.762Z,29.00
2023-02-21T14:03:28.465Z,28.60
2023-02-21T14:08:49.201Z,28.30
2023-02-21T14:13:56.061Z,28.20
2023-02-21T14:19:25.027Z,28.10
2023-02-21T14:24:29.978Z,28.00
2023-02-21T14:29:36.196Z,26.90
2023-02-21T14:34:50.083Z,26.60
2023-02-21T14:40:06.266Z,25.90
2023-02-21T14:45:10.845Z,26.00
2023-02-21T14:50:24.398Z,25.50
2023-02-21T14:55:33.892Z,25.20
2023-02-21T15:01:08.752Z,25.00
2023-02-21T15:06:18.892Z,24.80
2023-02-21T15:11:26.552Z,24.50
2023-02-21T15:16:32.019Z,24.00
2023-02-21T15:21:33.802Z,23.90
2023-02-21T15:26:35.462Z,23.70
2023-02-21T15:31:50.375Z,23.30
2023-02-21T15:37:03.041Z,23.40
2023-02-21T15:42:08.594Z,22.60
2023-02-21T15:47:15.850Z,22.60
2023-02-21T15:52:43.981Z,22.10
2023-02-21T15:57:46.350Z,21.40
2023-02-21T16:02:48.065Z,20.90
2023-02-21T16:07:54.122Z,20.00
2023-02-21T16:12:58.719Z,19.50
2023-02-21T16:18:08.890Z,18.70
2023-02-21T16:23:30.665Z,18.10
2023-02-21T16:28:32.773Z,17.50
2023-02-21T16:33:35.481Z,17.00
2023-02-21T16:38:37.214Z,16.70
2023-02-21T16:43:38.926Z,16.30
2023-02-21T16:48:40.592Z,15.70
2023-02-21T16:53:42.326Z,15.50
2023-02-21T16:58:48.214Z,15.20
2023-02-21T17:03:49.854Z,14.80
2023-02-21T17:08:52.129Z,14.20
2023-02-21T17:13:53.861Z,13.70
2023-02-21T17:18:55.578Z,13.50
2023-02-21T17:23:57.533Z,13.10
2023-02-21T17:28:59.290Z,12.50
2023-02-21T17:34:01.523Z,12.10
2023-02-21T17:39:03.320Z,12.00
2023-02-21T17:44:04.990Z,11.90
2023-02-21T17:49:06.677Z,11.80
2023-02-21T17:54:08.444Z,11.60
2023-02-21T17:59:10.509Z,11.50
2023-02-21T18:04:13.694Z,11.00
2023-02-21T18:09:15.417Z,10.80
2023-02-21T18:14:17.945Z,10.70
2023-02-21T18:19:19.631Z,10.60
2023-02-21T18:24:24.244Z,10.30
2023-02-21T18:29:26.042Z,10.10
2023-02-21T18:34:27.890Z,9.90
2023-02-21T18:39:29.685Z,9.70
2023-02-21T18:44:32.849Z,9.40
2023-02-21T18:49:38.548Z,9.50
2023-02-21T18:54:49.543Z,9.50
2023-02-21T18:59:51.304Z,9.20
2023-02-21T19:04:52.980Z,9.00
2023-02-21T19:09:55.338Z,9.10
2023-02-21T19:14:57.060Z,9.00
2023-02-21T19:19:58.813Z,8.80
2023-02-21T19:25:00.750Z,9.00
2023-02-21T19:30:02.602Z,8.90
2023-02-21T19:35:05.562Z,8.70
2023-02-21T19:40:08.099Z,8.50
2023-02-21T19:45:09.903Z,8.30
2023-02-21T19:50:12.866Z,8.40
2023-02-21T19:55:15.077Z,8.30
2023-02-21T20:00:17.652Z,8.10
2023-02-21T20:05:19.785Z,8.30
2023-02-21T20:10:25.354Z,8.00
2023-02-21T20:15:27.112Z,8.20
2023-02-21T20:20:29.314Z,8.30
2023-02-21T20:25:31.199Z,8.20
2023-02-21T20:30:33.654Z,8.30
2023-02-21T20:35:35.445Z,8.20
2023-02-21T20:40:37.271Z,8.20
2023-02-21T20:45:39.585Z,8.10
2023-02-21T20:50:41.714Z,8.10
2023-02-21T20:55:43.528Z,8.20
2023-02-21T21:00:45.198Z,8.30
2023-02-21T21:05:50.673Z,8.20
2023-02-21T21:10:52.384Z,8.10
2023-02-21T21:15:54.123Z,8.20
2023-02-21T21:20:55.783Z,8.30
2023-02-21T21:26:01.936Z,8.30
2023-02-21T21:31:04.315Z,8.30
2023-02-21T21:36:09.622Z,8.10
2023-02-21T21:41:14.698Z,7.90
2023-02-21T21:46:16.701Z,7.80
2023-02-21T21:51:18.659Z,7.60
2023-02-21T21:56:27.197Z,7.50
2023-02-21T22:01:30.002Z,7.50
2023-02-21T22:06:32.027Z,7.70
2023-02-21T22:11:34.538Z,7.90
2023-02-21T22:16:38.064Z,7.80
2023-02-21T22:21:39.776Z,8.00
2023-02-21T22:26:44.765Z,8.00
2023-02-21T22:31:48.137Z,7.80
2023-02-21T22:36:52.168Z,7.70
2023-02-21T22:41:53.913Z,7.70
2023-02-21T22:46:59.316Z,7.70
2023-02-21T22:52:01.011Z,7.80
2023-02-21T22:57:04.149Z,7.90
2023-02-21T23:02:05.832Z,7.90
2023-02-21T23:07:07.554Z,7.70
2023-02-21T23:12:11.210Z,7.20
2023-02-21T23:17:12.901Z,6.90
2023-02-21T23:22:15.782Z,6.90
2023-02-21T23:27:17.500Z,6.70
2023-02-21T23:32:19.204Z,6.60
2023-02-21T23:37:21.322Z,6.60
2023-02-21T23:42:23.745Z,6.50
2023-02-21T23:47:25.484Z,6.40
2023-02-21T23:52:29.323Z,6.50
2023-02-21T23:57:31.364Z,6.40
